• Join FlightAware (Why Join?)
  • Login
  • US Flag 
03:25PM EDT


 

Airport Tracker/Info


-or-


 

Live Flight TrackerFlight Track Log ✈ WJA129 ✈ 22-Apr-2013 ✈ CYQR - CYYC

Flight Track Log - Related Links

Times and Time Zones

All times are in EDT time to prevent confusion due to time zone crossing. See the WJA129 flight status page for this flight to view local times or setup timezone preferences in your user account.

Time Position Orientation Groundspeed Altitude Reporting Facility
EDT Latitude Longitude Course Direction KTS MPH feet Rate Location/Type
10:31PM 50.4990 -104.8410 284° West 244 281 7,400  Level FlightAware
10:32PM 50.5070 -104.8880 285° West 254 292 8,800 2,400 Climbing FlightAware
10:32PM 50.5210 -104.9740 284° West 297 342 10,400 1,800 Climbing FlightAware
10:33PM 50.5410 -105.0880 285° West 359 413 11,500 1,860 Climbing FlightAware
10:34PM 50.5550 -105.1700 285° West 374 430 12,900 2,940 Climbing FlightAware
10:34PM 50.5720 -105.2750 284° West 381 438 15,200 3,240 Climbing FlightAware
10:35PM 50.5930 -105.3970 285° West 395 455 17,500 3,180 Climbing FlightAware
10:36PM 50.6170 -105.5430 285° West 407 468 20,000 2,880 Climbing FlightAware
10:37PM 50.6370 -105.6620 285° West 412 474 21,900 2,220 Climbing FlightAware
10:37PM 50.6480 -105.7310 284° West 420 483 22,800 2,160 Climbing FlightAware
10:38PM 50.6720 -105.8790 284° West 429 494 24,600 2,100 Climbing FlightAware
10:39PM 50.6980 -106.0370 285° West 437 503 26,200 2,040 Climbing FlightAware
10:39PM 50.7180 -106.1610 284° West 437 503 27,700 2,160 Climbing FlightAware
10:40PM 50.7370 -106.2860 284° West 435 501 29,100 2,100 Climbing FlightAware
10:41PM 50.7570 -106.4090 284° West 433 498 30,500 1,980 Climbing FlightAware
10:42PM 50.7850 -106.5930 284° West 428 493 32,400 1,740 Climbing FlightAware
10:42PM 50.8030 -106.7090 284° West 432 497 33,400 1,440 Climbing FlightAware
10:43PM 50.8190 -106.8090 284° West 434 499 34,200 600 Climbing FlightAware
10:44PM 50.8370 -106.9380 283° West 434 499 34,200  Level FlightAware
10:44PM 50.8570 -107.0690 284° West 434 499 34,200  Level FlightAware
10:45PM 50.8720 -107.1750 283° West 434 499 34,200  Level FlightAware
10:46PM 50.8870 -107.2800 283° West 434 499 34,200  Level FlightAware
10:46PM 50.9030 -107.3860 283° West 434 499 34,200  Level FlightAware
10:47PM 50.9180 -107.4910 283° West 434 499 34,200  Level FlightAware
10:48PM 50.9370 -107.6230 283° West 434 499 34,200  Level FlightAware
10:49PM 50.9530 -107.7290 284° West 434 499 34,200  Level FlightAware
10:49PM 50.9680 -107.8340 283° West 434 499 34,200  Level FlightAware
10:50PM 50.9830 -107.9400 283° West 434 499 34,200  Level FlightAware
10:51PM 50.9990 -108.0460 284° West 434 499 34,200  Level FlightAware
10:51PM 51.0180 -108.1780 283° West 434 499 34,200  Level FlightAware
10:52PM 51.0290 -108.2570 283° West 434 499 34,200  Level FlightAware
10:53PM 51.0450 -108.3630 284° West 434 499 34,200 6,180 Level FlightAware
10:53PM 51.0667 -108.6833 284° West 430 495 40,000 10,860 Climbing Winnipeg Center
10:53PM 51.0667 -108.7167 270° West 420 483 40,000  Level Edmonton Center
10:54PM 51.0833 -108.8833 279° West 410 472 40,000  Level Winnipeg Center
10:55PM 51.1167 -109.0500 288° West 400 460 40,000  Level Winnipeg Center
10:56PM 51.1333 -109.2167 279° West 400 460 40,000  Level Winnipeg Center
10:57PM 51.1500 -109.3833 279° West 390 449 40,000  Level Winnipeg Center
10:57PM 51.1500 -109.4000 270° West 390 449 40,000  Level Edmonton Center
10:58PM 51.1667 -109.6000 278° West 380 437 40,000  Level Edmonton Center
10:59PM 51.2000 -109.7667 288° West 390 449 40,000  Level Edmonton Center
11:00PM 51.2167 -109.9000 281° West 390 449 40,000  Level Winnipeg Center
11:01PM 51.2500 -110.0833 286° West 390 449 40,000  Level Winnipeg Center
11:02PM 51.2500 -110.2500 270° West 390 449 40,000  Level Winnipeg Center
11:02PM 51.2500 -110.2833 270° West 390 449 40,000  Level Edmonton Center
11:03PM 51.2333 -110.4333 260° West 390 449 40,000  Level Edmonton Center
11:04PM 51.2500 -110.6000 279° West 390 449 40,000  Level Edmonton Center
11:05PM 51.2500 -110.8000 270° West 390 449 40,000  Level Edmonton Center
11:06PM 51.2667 -110.9333 281° West 400 460 40,000  Level Winnipeg Center
11:07PM 51.2667 -111.1167 270° West 400 460 40,000  Level Winnipeg Center
11:07PM 51.2667 -111.1500 270° West 390 449 40,000  Level Edmonton Center
11:08PM 51.2667 -111.3000 270° West 390 449 40,000 -660 Level Edmonton Center
11:09PM 51.2667 -111.5000 270° West 390 449 38,700 -1,740 Descending Edmonton Center
11:10PM 51.2667 -111.6667 270° West 400 460 36,600 -2,220 Descending Edmonton Center
11:11PM 51.2833 -111.8500 278° West 390 449 34,300 -2,340 Descending Edmonton Center
11:12PM 51.2833 -112.0167 270° West 380 437 32,000 -2,220 Descending Edmonton Center
11:13PM 51.2667 -112.2000 262° West 370 426 29,900 -2,160 Descending Edmonton Center
11:14PM 51.2833 -112.3333 281° West 360 414 27,700 -2,280 Descending Edmonton Center
11:15PM 51.2833 -112.5000 270° West 360 414 25,400 -2,220 Descending Edmonton Center
11:16PM 51.2667 -112.6667 261° West 350 403 23,300 -2,160 Descending Edmonton Center
11:17PM 51.2833 -112.8000 281° West 340 391 21,100 -2,100 Descending Edmonton Center
11:18PM 51.2500 -112.9500 251° West 340 391 19,100 -1,920 Descending Edmonton Center
11:19PM 51.2333 -113.1167 261° West 330 380 17,300 -1,680 Descending Edmonton Center
11:20PM 51.2000 -113.2500 248° West 330 380 15,800 -1,020 Descending Edmonton Center
11:21PM 51.1833 -113.3833 259° West 280 322 15,300 -720 Descending Edmonton Center
11:22PM 51.1667 -113.4833 255° West 260 299 14,400 -1,080 Descending Edmonton Center
11:23PM 51.1333 -113.5833 242° Southwest 260 299 13,200 -1,260 Descending Edmonton Center
11:24PM 51.1333 -113.6833 270° West 250 288 11,900 -1,200 Descending Edmonton Center
11:25PM 51.1167 -113.8000 257° West 230 265 10,800 -1,140 Descending Edmonton Center
11:26PM 51.1667 -113.8833 314° West 240 276 9,700 -960 Descending Edmonton Center
11:27PM 51.2167 -113.9000 348° North 240 276 8,900 -900 Descending Edmonton Center
11:28PM 51.2833 -113.9167 351° North 220 253 7,900 -900 Descending Edmonton Center
11:29PM 51.3333 -113.9500 337° Northwest 230 265 7,100 -720 Descending Edmonton Center
11:30PM 51.2833 -114.0167 220° Southwest 180 207 6,500 -420 Descending Edmonton Center
11:31PM 51.2333 -114.0333 192° South 160 184 6,300 -540 Descending Edmonton Center
11:32PM 51.2000 -114.0333 180° South 160 184 5,500 -900 Descending Edmonton Center
11:33PM 51.1500 -114.0500 192° South 150 173 4,600 -840 Descending Edmonton Center
11:34PM 51.1167 -114.0333 163° South 130 150 3,900 -720 Descending Edmonton Center